Time;durP1;ratioP1;P1;durP2;ratioP2;P2;SDS_P1;SDS_P2;PMS_P1;PMS_P2;Temp;Humidity;BMP_temperature;BMP_pressure;BME280_temperature;BME280_humidity;BME280_pressure;Samples;Min_cycle;Max_cycle;Signal;HPM_P1;HPM_P2
2023/12/09 00:00:58;;;;;;;20.13;3.70;;;6.00;99.90;;;;;;6271123;22;20082;-55
2023/12/09 00:03:23;;;;;;;15.18;4.93;;;6.00;99.90;;;;;;6272867;22;20010;-55
2023/12/09 00:05:49;;;;;;;13.98;4.68;;;6.00;99.90;;;;;;6272727;22;20003;-58
2023/12/09 00:08:15;;;;;;;7.78;3.58;;;6.00;99.90;;;;;;6272910;22;20012;-58
2023/12/09 00:10:40;;;;;;;9.82;3.50;;;6.00;99.90;;;;;;6273092;22;20008;-58
2023/12/09 00:13:06;;;;;;;9.35;3.80;;;6.00;99.90;;;;;;6273021;22;20004;-58
2023/12/09 00:15:31;;;;;;;7.88;3.00;;;6.00;99.90;;;;;;6272912;22;20034;-56
2023/12/09 00:17:57;;;;;;;10.35;3.60;;;5.90;99.90;;;;;;6272326;22;20279;-57
2023/12/09 00:20:23;;;;;;;14.25;3.30;;;6.00;99.90;;;;;;6271692;22;20007;-57
2023/12/09 00:22:48;;;;;;;10.50;4.07;;;6.00;99.90;;;;;;6241960;22;20447;-55
2023/12/09 00:25:14;;;;;;;7.65;3.05;;;6.00;99.90;;;;;;6269913;22;20049;-56
2023/12/09 00:27:39;;;;;;;9.60;3.30;;;6.00;99.90;;;;;;6272281;22;20007;-55
2023/12/09 00:30:07;;;;;;;12.85;3.22;;;6.10;99.90;;;;;;6271109;22;20316;-55
2023/12/09 00:32:33;;;;;;;9.07;2.67;;;6.10;99.90;;;;;;6245039;22;20004;-58
2023/12/09 00:35:00;;;;;;;10.75;3.28;;;6.10;99.90;;;;;;6271429;22;20091;-56
2023/12/09 00:37:26;;;;;;;7.40;2.75;;;6.10;99.90;;;;;;6272605;22;20057;-58
2023/12/09 00:39:51;;;;;;;10.00;2.78;;;6.10;99.90;;;;;;6270927;22;20004;-59
2023/12/09 00:42:17;;;;;;;13.55;3.58;;;6.10;99.90;;;;;;6272310;22;20004;-59
2023/12/09 00:44:42;;;;;;;11.02;2.33;;;6.10;99.90;;;;;;6272435;22;20503;-59
2023/12/09 00:47:08;;;;;;;12.52;2.63;;;6.10;99.90;;;;;;6271968;22;20109;-58
2023/12/09 00:49:34;;;;;;;9.50;2.45;;;6.20;99.90;;;;;;6270736;22;20004;-58
2023/12/09 00:52:00;;;;;;;6.15;2.45;;;6.20;99.90;;;;;;6271962;22;20340;-58
2023/12/09 00:54:25;;;;;;;7.97;1.90;;;6.20;99.90;;;;;;6272220;22;20000;-55
2023/12/09 00:56:51;;;;;;;12.15;2.20;;;6.20;99.90;;;;;;6272183;22;20649;-56
2023/12/09 00:59:16;;;;;;;5.97;2.20;;;6.20;99.90;;;;;;6271835;22;20000;-57
2023/12/09 01:01:42;;;;;;;6.60;2.58;;;6.20;99.90;;;;;;6271871;22;20441;-57
2023/12/09 01:04:08;;;;;;;9.73;2.63;;;6.20;99.90;;;;;;6272497;22;20054;-58
2023/12/09 01:06:33;;;;;;;12.85;3.42;;;6.20;99.90;;;;;;6273309;22;20004;-57
2023/12/09 01:08:59;;;;;;;4.82;2.10;;;6.20;99.90;;;;;;6271601;22;20402;-58
2023/12/09 01:11:25;;;;;;;6.57;2.35;;;6.20;99.90;;;;;;6271251;22;20054;-57
2023/12/09 01:13:50;;;;;;;4.70;1.98;;;6.20;99.90;;;;;;6271948;22;20446;-55
2023/12/09 01:16:16;;;;;;;3.78;2.17;;;6.30;99.90;;;;;;6272891;22;19999;-55
2023/12/09 01:18:42;;;;;;;6.78;3.03;;;6.30;99.90;;;;;;6273451;22;20000;-56
2023/12/09 01:21:07;;;;;;;6.60;2.40;;;6.20;99.90;;;;;;6271298;22;20004;-57
2023/12/09 01:23:33;;;;;;;3.05;1.73;;;6.20;99.90;;;;;;6271606;22;20083;-57
2023/12/09 01:25:58;;;;;;;12.02;2.58;;;6.20;99.90;;;;;;6271746;22;20332;-55
2023/12/09 01:28:24;;;;;;;8.05;2.75;;;6.20;99.90;;;;;;6251819;22;20040;-59
2023/12/09 01:30:49;;;;;;;8.80;2.33;;;6.20;99.90;;;;;;6270992;22;20000;-59
2023/12/09 01:33:15;;;;;;;7.57;1.90;;;6.20;99.90;;;;;;6272077;22;20053;-59
2023/12/09 01:35:41;;;;;;;5.97;2.47;;;6.20;99.90;;;;;;6269608;22;20020;-57
2023/12/09 01:38:07;;;;;;;8.02;2.33;;;6.30;99.90;;;;;;6271739;22;20424;-59
2023/12/09 01:40:32;;;;;;;7.05;2.45;;;6.30;99.90;;;;;;6271102;22;20484;-59
2023/12/09 01:42:58;;;;;;;10.48;1.85;;;6.30;99.90;;;;;;6272605;22;20035;-58
2023/12/09 01:45:23;;;;;;;11.02;2.10;;;6.30;99.90;;;;;;6272874;22;20007;-57
2023/12/09 01:47:49;;;;;;;7.68;1.88;;;6.30;99.90;;;;;;6273913;22;20003;-55
2023/12/09 01:50:15;;;;;;;6.60;2.05;;;6.30;99.90;;;;;;6272281;22;20011;-57
2023/12/09 01:52:42;;;;;;;10.10;2.38;;;6.30;99.90;;;;;;6271833;22;19995;-57
2023/12/09 01:55:11;;;;;;;6.43;2.22;;;6.30;99.90;;;;;;6270433;22;20003;-55
2023/12/09 01:57:37;;;;;;;6.78;1.88;;;6.30;99.90;;;;;;6272889;22;20000;-58
2023/12/09 02:00:04;;;;;;;10.05;2.40;;;6.30;99.90;;;;;;6272794;22;20004;-57
2023/12/09 02:02:30;;;;;;;6.70;1.92;;;6.30;99.90;;;;;;6273237;22;20030;-58
2023/12/09 02:04:56;;;;;;;6.15;2.25;;;6.20;99.90;;;;;;6273683;22;20007;-58
2023/12/09 02:07:22;;;;;;;12.93;2.67;;;6.20;99.90;;;;;;6296562;22;20102;-48
2023/12/09 02:09:48;;;;;;;7.57;2.05;;;6.20;99.90;;;;;;6303375;22;20038;-51
2023/12/09 02:12:25;;;;;;;13.38;2.40;;;6.10;99.90;;;;;;6306009;22;20011;-49
2023/12/09 02:15:12;;;;;;;5.60;2.08;;;6.20;99.90;;;;;;6306471;22;19999;-47
2023/12/09 02:17:59;;;;;;;4.70;2.33;;;6.20;99.90;;;;;;6305566;22;19999;-49
2023/12/09 02:20:26;;;;;;;6.50;1.73;;;6.20;99.90;;;;;;6280993;22;20000;-49
2023/12/09 02:23:07;;;;;;;5.25;1.58;;;6.20;99.90;;;;;;6306002;22;19999;-48
2023/12/09 02:25:34;;;;;;;5.25;1.77;;;6.30;99.90;;;;;;6305878;22;20501;-48
2023/12/09 02:28:17;;;;;;;7.32;2.55;;;6.30;99.90;;;;;;6305736;22;19995;-50
2023/12/09 02:30:54;;;;;;;9.75;2.25;;;6.40;99.90;;;;;;6278193;22;20014;-49
2023/12/09 02:33:22;;;;;;;7.05;2.20;;;6.30;99.90;;;;;;6305214;22;19999;-49
2023/12/09 02:35:50;;;;;;;15.50;1.92;;;6.30;99.90;;;;;;6305721;22;20070;-49
2023/12/09 02:38:17;;;;;;;10.20;2.22;;;6.30;99.90;;;;;;6302357;22;20007;-49
2023/12/09 02:40:43;;;;;;;8.90;2.17;;;6.30;99.90;;;;;;6305162;22;20339;-47
2023/12/09 02:43:10;;;;;;;5.60;1.88;;;6.30;99.90;;;;;;6305453;22;20000;-49
2023/12/09 02:45:36;;;;;;;5.72;1.85;;;6.20;99.90;;;;;;6304897;22;20495;-50
2023/12/09 02:48:03;;;;;;;8.25;2.45;;;6.20;99.90;;;;;;6305247;22;19999;-48
2023/12/09 02:50:29;;;;;;;9.68;2.28;;;6.10;99.90;;;;;;6304306;22;20010;-49
2023/12/09 02:52:55;;;;;;;6.18;1.90;;;6.20;99.90;;;;;;6305086;22;20035;-48
2023/12/09 02:55:20;;;;;;;7.85;2.20;;;6.10;99.90;;;;;;6302987;22;20007;-49
2023/12/09 02:57:46;;;;;;;5.82;1.85;;;6.00;99.90;;;;;;6302144;22;20027;-48
2023/12/09 03:00:12;;;;;;;9.50;2.33;;;6.00;99.90;;;;;;6304599;22;20002;-51
2023/12/09 03:02:37;;;;;;;6.68;1.90;;;5.90;99.90;;;;;;6304714;22;20009;-49
2023/12/09 03:05:03;;;;;;;11.50;2.15;;;5.80;99.90;;;;;;6304750;22;20338;-49
2023/12/09 03:07:29;;;;;;;7.38;2.10;;;5.70;99.90;;;;;;6303275;22;20015;-50
2023/12/09 03:09:54;;;;;;;8.52;2.10;;;5.70;99.90;;;;;;6304607;22;20351;-49
2023/12/09 03:12:20;;;;;;;5.10;2.10;;;5.70;99.90;;;;;;6304844;22;20431;-47
2023/12/09 03:14:46;;;;;;;7.90;1.42;;;5.70;99.90;;;;;;6305484;22;20030;-54
2023/12/09 03:17:11;;;;;;;3.33;1.90;;;5.80;99.90;;;;;;6305119;22;20007;-48
2023/12/09 03:19:37;;;;;;;7.72;2.30;;;5.80;99.90;;;;;;6304447;22;20074;-48
2023/12/09 03:22:03;;;;;;;9.07;1.83;;;5.80;99.90;;;;;;6305367;22;20667;-48
2023/12/09 03:24:29;;;;;;;11.13;3.63;;;5.70;99.90;;;;;;6303799;22;20524;-48
2023/12/09 03:26:54;;;;;;;17.90;2.70;;;5.70;99.90;;;;;;6304782;22;20025;-48
2023/12/09 03:29:21;;;;;;;13.05;2.05;;;5.70;99.90;;;;;;6304811;22;20003;-51
2023/12/09 03:31:47;;;;;;;9.13;2.67;;;5.60;99.90;;;;;;6303947;22;20007;-48
2023/12/09 03:34:13;;;;;;;9.95;2.50;;;5.50;99.90;;;;;;6305007;22;19999;-47
2023/12/09 03:36:39;;;;;;;8.82;2.03;;;5.40;99.90;;;;;;6303930;22;20065;-47
2023/12/09 03:39:06;;;;;;;7.28;1.80;;;5.30;99.90;;;;;;6304679;22;19995;-48
2023/12/09 03:41:32;;;;;;;12.27;2.88;;;5.30;99.90;;;;;;6301545;22;20393;-53
2023/12/09 03:43:57;;;;;;;6.70;1.77;;;5.30;99.90;;;;;;6304776;22;20427;-49
2023/12/09 03:46:23;;;;;;;6.80;1.85;;;5.30;99.90;;;;;;6304092;22;20014;-48
2023/12/09 03:48:49;;;;;;;5.85;2.17;;;5.20;99.90;;;;;;6302863;22;20082;-52
2023/12/09 03:51:14;;;;;;;11.25;3.53;;;5.20;99.90;;;;;;6303474;22;19999;-49
2023/12/09 03:53:43;;;;;;;6.72;2.22;;;5.10;99.90;;;;;;6304256;22;19995;-48
2023/12/09 03:56:11;;;;;;;6.97;1.63;;;5.10;99.90;;;;;;6303364;22;20004;-48
2023/12/09 03:58:37;;;;;;;12.80;2.10;;;5.10;99.90;;;;;;6277861;22;20109;-50
2023/12/09 04:01:03;;;;;;;12.27;2.63;;;5.00;99.90;;;;;;6304572;22;20729;-54
2023/12/09 04:03:29;;;;;;;6.63;2.70;;;4.90;99.90;;;;;;6305453;22;20003;-49
2023/12/09 04:05:54;;;;;;;7.68;1.98;;;4.90;99.90;;;;;;6276759;22;20338;-48
2023/12/09 04:08:20;;;;;;;6.65;2.05;;;4.90;99.90;;;;;;6303910;22;19999;-48
2023/12/09 04:10:46;;;;;;;10.57;1.95;;;4.90;99.90;;;;;;6277859;22;20591;-48
2023/12/09 04:13:12;;;;;;;7.65;2.20;;;4.90;99.90;;;;;;6304894;22;20361;-48
2023/12/09 04:15:38;;;;;;;14.45;2.70;;;4.80;99.90;;;;;;6305098;22;20019;-49
2023/12/09 04:18:04;;;;;;;7.90;2.42;;;4.80;99.90;;;;;;6304732;22;20640;-47
2023/12/09 04:20:30;;;;;;;10.60;2.70;;;4.80;99.90;;;;;;6276740;22;20003;-50
2023/12/09 04:22:55;;;;;;;11.63;2.60;;;4.70;99.90;;;;;;6304586;22;20000;-48
2023/12/09 04:25:21;;;;;;;10.15;2.65;;;4.60;99.90;;;;;;6297747;22;20003;-49
2023/12/09 04:27:47;;;;;;;6.22;1.98;;;4.50;99.90;;;;;;6304996;22;20431;-48
2023/12/09 04:30:13;;;;;;;17.38;2.47;;;4.40;99.90;;;;;;6303889;22;20003;-51
2023/12/09 04:32:39;;;;;;;9.07;2.10;;;4.40;99.90;;;;;;6304240;22;20014;-48
2023/12/09 04:35:05;;;;;;;13.07;2.40;;;4.30;99.90;;;;;;6305032;22;20078;-50
2023/12/09 04:37:30;;;;;;;10.80;2.70;;;4.20;99.90;;;;;;6303702;22;20031;-49
2023/12/09 04:39:56;;;;;;;6.93;2.47;;;4.20;99.90;;;;;;6304536;22;20061;-49
2023/12/09 04:42:22;;;;;;;5.80;2.33;;;4.10;99.90;;;;;;6304890;22;20003;-48
2023/12/09 04:44:48;;;;;;;15.30;2.92;;;4.00;99.90;;;;;;6277365;22;20431;-48
2023/12/09 04:47:13;;;;;;;7.55;2.83;;;4.10;99.90;;;;;;6304333;22;20061;-51
2023/12/09 04:49:39;;;;;;;14.23;3.85;;;4.00;99.90;;;;;;6304699;22;20065;-49
2023/12/09 04:52:05;;;;;;;8.20;2.75;;;4.00;99.90;;;;;;6304362;22;20064;-47
2023/12/09 04:54:30;;;;;;;14.23;2.95;;;4.00;99.90;;;;;;6275978;22;19999;-48
2023/12/09 04:56:56;;;;;;;5.18;2.50;;;3.90;99.90;;;;;;6304618;22;20136;-48
2023/12/09 04:59:23;;;;;;;5.13;2.50;;;3.90;99.90;;;;;;6304911;22;20000;-50
2023/12/09 05:01:48;;;;;;;8.05;2.70;;;3.80;99.90;;;;;;6304595;22;20083;-48
2023/12/09 05:04:14;;;;;;;7.15;2.70;;;3.80;99.90;;;;;;6304705;22;19999;-48
2023/12/09 05:06:40;;;;;;;9.90;2.92;;;3.90;99.90;;;;;;6303094;22;20053;-48
2023/12/09 05:09:05;;;;;;;12.68;2.75;;;3.90;99.90;;;;;;6304910;22;19999;-48
2023/12/09 05:11:34;;;;;;;8.98;2.78;;;4.10;99.90;;;;;;6304426;22;20074;-49
2023/12/09 05:13:59;;;;;;;10.93;3.00;;;4.20;99.90;;;;;;6302820;22;20376;-52
2023/12/09 05:16:25;;;;;;;9.25;3.05;;;4.40;99.90;;;;;;6304501;22;20006;-52
2023/12/09 05:18:52;;;;;;;9.00;3.10;;;4.60;99.90;;;;;;6303809;22;20002;-48
2023/12/09 05:21:17;;;;;;;11.00;3.63;;;4.60;99.90;;;;;;6305437;22;20003;-48
2023/12/09 05:23:43;;;;;;;14.35;3.30;;;4.80;99.90;;;;;;6306568;22;20053;-51
2023/12/09 05:26:09;;;;;;;11.63;3.65;;;5.00;99.90;;;;;;6267595;22;20043;-50
2023/12/09 05:28:35;;;;;;;6.07;3.20;;;5.10;99.90;;;;;;6278075;22;20086;-48
2023/12/09 05:31:01;;;;;;;12.40;3.70;;;5.10;99.90;;;;;;6279570;22;20007;-50
2023/12/09 05:33:26;;;;;;;9.60;3.55;;;5.10;99.90;;;;;;6305640;22;20003;-48
2023/12/09 05:35:52;;;;;;;15.52;3.88;;;5.20;99.90;;;;;;6306051;22;19995;-49
2023/12/09 05:38:17;;;;;;;7.47;3.55;;;5.20;99.90;;;;;;6306801;22;20055;-47
2023/12/09 05:40:43;;;;;;;10.45;3.60;;;5.10;99.90;;;;;;6306458;22;20011;-48
2023/12/09 05:43:09;;;;;;;10.95;3.40;;;5.00;99.90;;;;;;6306867;22;20309;-53
2023/12/09 05:45:34;;;;;;;15.73;4.43;;;4.90;99.90;;;;;;6305877;22;20000;-49
2023/12/09 05:48:00;;;;;;;7.00;3.28;;;4.70;99.90;;;;;;6306018;22;20074;-48
2023/12/09 05:50:25;;;;;;;11.15;3.78;;;4.60;99.90;;;;;;6305570;22;20006;-48
2023/12/09 05:52:51;;;;;;;16.60;4.40;;;4.50;99.90;;;;;;6306662;22;20014;-50
2023/12/09 05:55:17;;;;;;;8.82;3.60;;;4.40;99.90;;;;;;6278224;22;20007;-51
2023/12/09 05:57:44;;;;;;;12.35;3.72;;;4.30;99.90;;;;;;6302903;22;20037;-48
2023/12/09 06:00:11;;;;;;;9.68;3.80;;;4.20;99.90;;;;;;6306041;22;19999;-49
2023/12/09 06:02:39;;;;;;;13.50;4.18;;;4.10;99.90;;;;;;6305325;22;20056;-47
2023/12/09 06:05:05;;;;;;;10.70;3.90;;;4.10;99.90;;;;;;6306979;22;20007;-55
2023/12/09 06:07:31;;;;;;;12.18;3.30;;;4.00;99.90;;;;;;6277580;22;20038;-48
2023/12/09 06:09:56;;;;;;;8.13;3.70;;;4.00;99.90;;;;;;6305879;22;20003;-48
2023/12/09 06:12:22;;;;;;;11.00;3.80;;;3.90;99.90;;;;;;6306131;22;20141;-49
2023/12/09 06:14:48;;;;;;;11.00;4.35;;;3.90;99.90;;;;;;6305710;22;20000;-48
2023/12/09 06:17:13;;;;;;;17.10;4.68;;;3.90;99.90;;;;;;6305470;22;20443;-47
2023/12/09 06:19:40;;;;;;;15.32;4.22;;;3.80;99.90;;;;;;6305395;22;20066;-48
2023/12/09 06:22:06;;;;;;;7.47;3.28;;;3.80;99.90;;;;;;6305957;22;20003;-50
2023/12/09 06:24:31;;;;;;;13.07;3.60;;;3.80;99.90;;;;;;6268413;22;20508;-47
2023/12/09 06:26:57;;;;;;;10.07;3.40;;;3.80;99.90;;;;;;6305881;22;20007;-49
2023/12/09 06:29:23;;;;;;;13.82;3.78;;;3.80;99.90;;;;;;6305910;22;20074;-52
2023/12/09 06:31:49;;;;;;;13.27;3.67;;;3.80;99.90;;;;;;6305184;22;20007;-50
2023/12/09 06:34:14;;;;;;;29.45;11.10;;;3.80;99.90;;;;;;6306166;22;20006;-48
2023/12/09 06:36:40;;;;;;;28.95;12.40;;;3.80;99.90;;;;;;6305510;22;20007;-49
2023/12/09 06:39:05;;;;;;;60.75;21.67;;;3.80;99.90;;;;;;6304492;22;19999;-48
2023/12/09 06:41:31;;;;;;;56.13;21.25;;;3.80;99.90;;;;;;6305277;22;19999;-48
2023/12/09 06:43:56;;;;;;;49.08;22.45;;;3.80;99.90;;;;;;6306272;22;20335;-48
2023/12/09 06:46:22;;;;;;;65.35;32.97;;;3.80;99.90;;;;;;6305693;22;19999;-47
2023/12/09 06:48:48;;;;;;;48.80;22.60;;;3.70;99.90;;;;;;6304920;22;20123;-48
2023/12/09 06:51:14;;;;;;;25.02;13.63;;;3.70;99.90;;;;;;6305956;22;20015;-49
2023/12/09 06:53:40;;;;;;;20.17;6.68;;;3.70;99.90;;;;;;6277940;22;20340;-49
2023/12/09 06:56:06;;;;;;;15.18;6.90;;;3.70;99.90;;;;;;6278542;22;20003;-50
2023/12/09 06:58:32;;;;;;;10.32;4.43;;;3.70;99.90;;;;;;6304970;22;19996;-47
2023/12/09 07:00:57;;;;;;;9.02;3.65;;;3.70;99.90;;;;;;6305724;22;20053;-48
2023/12/09 07:03:23;;;;;;;11.63;4.25;;;3.60;99.90;;;;;;6304933;22;20011;-48
2023/12/09 07:05:49;;;;;;;17.65;3.55;;;3.60;99.90;;;;;;6304626;22;20011;-48
2023/12/09 07:08:15;;;;;;;11.05;3.85;;;3.60;99.90;;;;;;6303604;22;20064;-48
2023/12/09 07:10:46;;;;;;;9.98;3.25;;;3.50;99.90;;;;;;6304938;22;20011;-48
2023/12/09 07:13:11;;;;;;;20.67;4.40;;;3.50;99.90;;;;;;6304902;22;19995;-48
2023/12/09 07:15:37;;;;;;;9.88;3.30;;;3.60;99.90;;;;;;6304487;22;20010;-49
2023/12/09 07:18:04;;;;;;;14.20;4.15;;;3.50;99.90;;;;;;6304398;22;20182;-51
2023/12/09 07:20:29;;;;;;;27.98;6.18;;;3.70;99.90;;;;;;6304229;22;20004;-49
2023/12/09 07:22:55;;;;;;;13.88;4.50;;;3.70;99.90;;;;;;6304853;22;20030;-48
2023/12/09 07:25:21;;;;;;;15.63;4.55;;;3.80;99.90;;;;;;6305172;22;20003;-47
2023/12/09 07:27:47;;;;;;;22.40;5.18;;;3.80;99.90;;;;;;6305181;22;20086;-49
2023/12/09 07:30:12;;;;;;;17.00;5.45;;;3.80;99.90;;;;;;6305168;22;20090;-49
2023/12/09 07:32:38;;;;;;;11.90;4.85;;;3.70;99.90;;;;;;6304260;22;20007;-48
2023/12/09 07:35:04;;;;;;;17.23;6.10;;;3.80;99.90;;;;;;6304735;22;20083;-49
2023/12/09 07:37:30;;;;;;;17.88;4.35;;;3.80;99.90;;;;;;6304117;22;19995;-48
2023/12/09 07:39:55;;;;;;;18.80;5.30;;;3.90;99.90;;;;;;6302703;22;19995;-50
2023/12/09 07:42:21;;;;;;;11.32;5.00;;;4.00;99.90;;;;;;6304394;22;20004;-50
2023/12/09 07:44:46;;;;;;;16.73;4.78;;;4.00;99.90;;;;;;6303323;22;20102;-49
2023/12/09 07:47:12;;;;;;;19.45;5.43;;;4.00;99.90;;;;;;6304397;22;20088;-48
2023/12/09 07:49:38;;;;;;;29.80;5.03;;;4.10;99.90;;;;;;6303247;22;20010;-49
2023/12/09 07:52:03;;;;;;;26.17;5.70;;;4.10;99.90;;;;;;6304600;22;20054;-50
2023/12/09 07:54:29;;;;;;;16.60;5.35;;;4.20;99.90;;;;;;6303005;22;20048;-51
2023/12/09 07:56:54;;;;;;;24.58;7.68;;;4.20;99.90;;;;;;6303237;22;20486;-47
2023/12/09 07:59:20;;;;;;;24.13;9.18;;;4.30;99.90;;;;;;6304219;22;20308;-47
2023/12/09 08:01:46;;;;;;;24.98;8.45;;;4.30;99.90;;;;;;6300831;22;20003;-49
2023/12/09 08:04:12;;;;;;;15.85;6.43;;;4.30;99.90;;;;;;6303482;22;20447;-49
2023/12/09 08:06:37;;;;;;;13.35;3.85;;;4.30;99.90;;;;;;6303707;22;20018;-49
2023/12/09 08:09:03;;;;;;;13.93;4.25;;;4.40;99.90;;;;;;6267580;22;20026;-54
2023/12/09 08:11:28;;;;;;;12.10;2.78;;;4.40;99.90;;;;;;6272216;22;20381;-53
2023/12/09 08:13:54;;;;;;;8.82;3.20;;;4.40;99.90;;;;;;6272006;22;19999;-56
2023/12/09 08:16:20;;;;;;;8.40;2.80;;;4.50;99.90;;;;;;6273233;22;20000;-52
2023/12/09 08:18:46;;;;;;;12.95;3.35;;;4.50;99.90;;;;;;6272889;22;20004;-51
2023/12/09 08:21:11;;;;;;;15.32;3.17;;;4.50;99.90;;;;;;6273123;22;20010;-54
2023/12/09 08:23:38;;;;;;;13.90;2.85;;;4.60;99.90;;;;;;6271909;22;20000;-56
2023/12/09 08:26:04;;;;;;;9.13;3.00;;;4.60;99.90;;;;;;6272651;22;20007;-53
2023/12/09 08:28:29;;;;;;;10.13;3.38;;;4.70;99.90;;;;;;6273043;22;20327;-56
2023/12/09 08:30:55;;;;;;;12.93;3.60;;;4.90;99.90;;;;;;6272348;22;20018;-51
2023/12/09 08:33:20;;;;;;;9.50;3.75;;;5.00;99.90;;;;;;6273274;22;20004;-51
2023/12/09 08:35:46;;;;;;;9.32;2.15;;;5.10;99.90;;;;;;6271921;22;19992;-52
2023/12/09 08:38:11;;;;;;;16.52;2.92;;;5.20;99.90;;;;;;6272657;22;20004;-55
2023/12/09 08:40:37;;;;;;;30.08;2.92;;;5.30;99.90;;;;;;6273217;22;20022;-54
2023/12/09 08:43:03;;;;;;;10.73;2.88;;;5.40;99.90;;;;;;6273257;22;20000;-55
2023/12/09 08:45:31;;;;;;;19.23;4.00;;;5.40;99.90;;;;;;6272974;22;20435;-54
2023/12/09 08:47:57;;;;;;;34.10;5.88;;;5.50;99.90;;;;;;6272402;22;20074;-54
2023/12/09 08:50:22;;;;;;;43.50;15.32;;;5.60;99.90;;;;;;6271540;22;20383;-54
2023/12/09 08:52:48;;;;;;;30.17;9.80;;;5.60;99.90;;;;;;6272894;22;20081;-56
2023/12/09 08:55:13;;;;;;;23.45;7.70;;;5.60;99.90;;;;;;6273028;22;20007;-54
2023/12/09 08:57:39;;;;;;;23.73;7.75;;;5.70;99.90;;;;;;6274501;22;20000;-54
2023/12/09 09:00:08;;;;;;;49.25;12.70;;;5.70;99.90;;;;;;6274394;22;20000;-57
2023/12/09 09:02:34;;;;;;;56.80;13.85;;;5.70;99.90;;;;;;6274895;22;20447;-53
2023/12/09 09:05:00;;;;;;;90.35;22.42;;;5.80;99.90;;;;;;6274251;22;20004;-54
2023/12/09 09:07:25;;;;;;;78.22;19.95;;;5.90;99.90;;;;;;6273571;22;20016;-54
2023/12/09 09:09:51;;;;;;;23.63;7.45;;;6.00;99.90;;;;;;6274117;22;20343;-54
2023/12/09 09:12:16;;;;;;;24.80;7.05;;;6.10;99.90;;;;;;6274823;22;20004;-54
2023/12/09 09:14:42;;;;;;;36.20;10.93;;;6.10;99.90;;;;;;6275095;22;20028;-57
2023/12/09 09:17:07;;;;;;;21.85;4.63;;;6.30;99.90;;;;;;6274583;22;20054;-54
2023/12/09 09:19:34;;;;;;;15.63;3.30;;;6.40;99.90;;;;;;6274652;22;20004;-59
2023/12/09 09:22:00;;;;;;;6.78;2.63;;;6.40;99.90;;;;;;6274774;22;20340;-54
2023/12/09 09:24:26;;;;;;;10.80;3.45;;;6.50;99.90;;;;;;6275155;22;20000;-54
2023/12/09 09:26:51;;;;;;;22.90;5.53;;;6.60;99.90;;;;;;6274041;22;20000;-53
2023/12/09 09:29:17;;;;;;;18.50;3.72;;;6.60;99.90;;;;;;6274710;22;20019;-54
2023/12/09 09:31:42;;;;;;;21.08;3.88;;;6.60;99.90;;;;;;6274051;22;20003;-55
2023/12/09 09:34:08;;;;;;;11.35;3.50;;;6.70;99.90;;;;;;6274691;22;20007;-57
2023/12/09 09:36:34;;;;;;;16.67;3.60;;;6.70;99.90;;;;;;6274089;22;20000;-54
2023/12/09 09:38:59;;;;;;;11.32;3.50;;;6.70;99.90;;;;;;6273355;22;20118;-55
2023/12/09 09:41:31;;;;;;;14.00;2.60;;;6.90;99.90;;;;;;6274486;22;20439;-55
2023/12/09 09:44:10;;;;;;;11.27;3.97;;;6.80;99.90;;;;;;6274676;22;20004;-56
2023/12/09 09:46:37;;;;;;;16.98;3.00;;;6.90;99.90;;;;;;6274812;22;20054;-54
2023/12/09 09:49:04;;;;;;;12.35;3.15;;;6.90;99.90;;;;;;6273891;22;20474;-53
2023/12/09 09:51:31;;;;;;;10.07;3.38;;;7.00;99.90;;;;;;6273315;22;20037;-56
2023/12/09 09:54:10;;;;;;;7.15;1.90;;;7.00;99.90;;;;;;6273645;22;20000;-54
2023/12/09 09:56:37;;;;;;;15.95;2.53;;;7.10;99.90;;;;;;6246869;22;20027;-54
2023/12/09 09:59:03;;;;;;;15.20;2.15;;;7.20;99.90;;;;;;6273943;22;20079;-55
2023/12/09 10:01:31;;;;;;;13.25;3.45;;;7.20;99.90;;;;;;6274158;22;20006;-55
2023/12/09 10:03:56;;;;;;;13.25;3.85;;;7.30;99.90;;;;;;6274482;22;20053;-54
2023/12/09 10:06:24;;;;;;;9.10;2.63;;;7.40;99.90;;;;;;6273667;22;20427;-55
2023/12/09 10:08:50;;;;;;;15.18;2.53;;;7.50;99.90;;;;;;6273308;22;20351;-54
2023/12/09 10:11:16;;;;;;;12.90;2.58;;;7.60;99.90;;;;;;6273794;22;20003;-54
2023/12/09 10:13:43;;;;;;;16.20;2.55;;;7.70;99.90;;;;;;6274317;22;20011;-56
2023/12/09 10:16:09;;;;;;;10.20;2.40;;;7.80;99.90;;;;;;6274544;22;20053;-55
2023/12/09 10:18:35;;;;;;;3.42;1.85;;;7.90;99.90;;;;;;6274331;22;20335;-52
2023/12/09 10:21:01;;;;;;;16.92;2.38;;;8.00;99.90;;;;;;6246733;22;20038;-54
2023/12/09 10:23:27;;;;;;;15.65;3.70;;;8.00;99.90;;;;;;6272650;22;19999;-55
2023/12/09 10:25:52;;;;;;;13.40;2.85;;;8.00;99.90;;;;;;6273132;22;20010;-56
2023/12/09 10:28:19;;;;;;;11.65;2.10;;;7.90;99.90;;;;;;6273547;22;20010;-53
2023/12/09 10:30:46;;;;;;;13.05;3.90;;;7.90;99.90;;;;;;6273109;22;20085;-54
2023/12/09 10:33:12;;;;;;;17.15;3.00;;;7.80;99.90;;;;;;6273615;22;20058;-55
2023/12/09 10:35:38;;;;;;;13.57;3.05;;;7.80;99.90;;;;;;6273694;22;20000;-52
2023/12/09 10:38:08;;;;;;;17.73;2.65;;;7.90;99.90;;;;;;6246537;22;20011;-51
2023/12/09 10:40:34;;;;;;;25.02;3.63;;;7.90;99.90;;;;;;6273808;22;20000;-54
2023/12/09 10:43:02;;;;;;;6.70;2.35;;;8.00;99.90;;;;;;6273430;22;20049;-53
2023/12/09 10:45:28;;;;;;;7.45;1.55;;;8.10;99.90;;;;;;6273839;22;20004;-55
2023/12/09 10:47:54;;;;;;;14.27;1.88;;;8.30;99.90;;;;;;6272735;22;20141;-51
2023/12/09 10:50:20;;;;;;;8.48;1.73;;;8.60;99.90;;;;;;6245798;22;20010;-57
2023/12/09 10:52:46;;;;;;;6.85;1.77;;;8.80;99.90;;;;;;6253695;22;20003;-56
2023/12/09 10:55:11;;;;;;;8.70;2.40;;;9.00;99.90;;;;;;6271082;22;20004;-53
2023/12/09 10:57:39;;;;;;;11.32;2.20;;;9.20;99.90;;;;;;6271358;22;20004;-54
2023/12/09 11:00:10;;;;;;;15.63;2.85;;;9.30;99.90;;;;;;6269947;22;20004;-55
2023/12/09 11:02:40;;;;;;;8.23;1.90;;;9.50;99.90;;;;;;6271382;22;20011;-55
2023/12/09 11:05:10;;;;;;;5.53;1.65;;;9.50;99.90;;;;;;6271330;22;20019;-55
2023/12/09 11:07:36;;;;;;;7.38;2.55;;;9.60;99.90;;;;;;6271525;22;20069;-55
2023/12/09 11:10:06;;;;;;;6.93;1.83;;;9.70;99.90;;;;;;6271409;22;20092;-56
2023/12/09 11:12:32;;;;;;;15.52;2.90;;;9.70;99.90;;;;;;6248690;22;20023;-51
2023/12/09 11:15:07;;;;;;;11.38;2.90;;;9.60;99.90;;;;;;6260652;22;20076;-57
2023/12/09 11:17:35;;;;;;;11.63;1.90;;;9.50;99.90;;;;;;6271990;22;20116;-51
2023/12/09 11:20:09;;;;;;;6.05;2.03;;;9.30;99.90;;;;;;6269617;22;20008;-57
2023/12/09 11:22:43;;;;;;;11.75;2.80;;;9.20;99.90;;;;;;6243976;22;19999;-53
2023/12/09 11:25:12;;;;;;;12.93;2.00;;;9.10;99.90;;;;;;6270807;22;20004;-54
2023/12/09 11:27:38;;;;;;;8.77;1.65;;;8.90;99.90;;;;;;6270102;22;20006;-54
2023/12/09 11:30:05;;;;;;;10.57;2.05;;;8.80;99.90;;;;;;6271089;22;20321;-53
2023/12/09 11:32:30;;;;;;;5.90;2.08;;;8.70;99.90;;;;;;6270520;22;20400;-52
2023/12/09 11:35:00;;;;;;;12.82;2.67;;;8.60;99.90;;;;;;6269361;22;20035;-57
2023/12/09 11:37:30;;;;;;;11.25;3.15;;;8.50;99.90;;;;;;6221882;22;20016;-52
2023/12/09 11:39:57;;;;;;;14.55;3.40;;;8.50;99.90;;;;;;6268981;22;20133;-54
2023/12/09 11:42:25;;;;;;;10.32;3.50;;;8.40;99.90;;;;;;6271193;22;20007;-55
2023/12/09 11:44:51;;;;;;;16.38;3.13;;;8.30;99.90;;;;;;6269726;22;20011;-55
2023/12/09 11:47:19;;;;;;;8.45;2.17;;;8.30;99.90;;;;;;6270655;22;20007;-53
2023/12/09 11:49:46;;;;;;;10.30;2.97;;;8.30;99.90;;;;;;6269374;22;20008;-57
2023/12/09 11:52:11;;;;;;;12.00;2.90;;;8.20;99.90;;;;;;6270263;22;20057;-55
2023/12/09 11:54:37;;;;;;;11.82;2.28;;;8.30;99.90;;;;;;6271022;22;20008;-53
2023/12/09 11:57:03;;;;;;;11.95;2.08;;;8.40;99.90;;;;;;6269838;22;20007;-54
2023/12/09 11:59:28;;;;;;;9.30;1.70;;;8.50;99.90;;;;;;6269364;22;20004;-54
2023/12/09 12:01:54;;;;;;;10.40;2.47;;;8.50;99.90;;;;;;6269735;22;20007;-56
2023/12/09 12:04:19;;;;;;;8.50;2.03;;;8.50;99.90;;;;;;6270748;22;20004;-54
2023/12/09 12:06:45;;;;;;;19.02;2.80;;;8.50;99.90;;;;;;6270837;22;20008;-54
2023/12/09 12:09:11;;;;;;;13.70;2.33;;;8.50;99.90;;;;;;6270776;22;20374;-57
2023/12/09 12:11:37;;;;;;;6.57;1.63;;;8.50;99.90;;;;;;6268433;22;20008;-54
2023/12/09 12:14:04;;;;;;;6.10;2.35;;;8.60;99.90;;;;;;6247007;22;20015;-56
2023/12/09 12:16:30;;;;;;;13.13;2.70;;;8.50;99.90;;;;;;6268766;22;20011;-55
2023/12/09 12:18:55;;;;;;;14.65;3.58;;;8.70;99.90;;;;;;6270095;22;20000;-54
2023/12/09 12:21:21;;;;;;;7.63;2.22;;;8.80;99.90;;;;;;6268764;22;20107;-57
2023/12/09 12:23:54;;;;;;;10.13;2.70;;;8.90;99.90;;;;;;6269468;22;20038;-53
2023/12/09 12:26:21;;;;;;;12.57;2.72;;;9.00;99.90;;;;;;6243294;22;20016;-55
2023/12/09 12:28:48;;;;;;;11.32;2.55;;;9.10;99.90;;;;;;6268209;22;20003;-55
2023/12/09 12:31:14;;;;;;;9.90;2.83;;;9.10;99.90;;;;;;6269867;22;20355;-54
2023/12/09 12:33:40;;;;;;;13.70;3.67;;;9.20;99.90;;;;;;6270115;22;20007;-54
2023/12/09 12:36:06;;;;;;;10.75;2.20;;;9.20;99.90;;;;;;6269982;22;20004;-54
2023/12/09 12:38:32;;;;;;;9.80;2.55;;;9.20;99.90;;;;;;6269714;22;20000;-55
2023/12/09 12:40:58;;;;;;;10.60;2.95;;;9.10;99.90;;;;;;6269997;22;20070;-56
2023/12/09 12:43:30;;;;;;;9.27;3.22;;;9.00;99.90;;;;;;6269848;22;20003;-56
2023/12/09 12:45:58;;;;;;;9.70;4.05;;;8.90;99.90;;;;;;6269918;22;20008;-55